• Join FlightAware (Why Join?)
  • Login
  • US Flag 
10:26PM EDT


 

Airport Tracker/Info


-or-


 

Live Flight TrackerFlight Track Log ✈ AWE1940 ✈ 27-May-2013 ✈ KCLT - KALB

Flight Track Log - Related Links

Times and Time Zones

All times are in EDT time to prevent confusion due to time zone crossing. See the AWE1940 flight status page for this flight to view local times or setup timezone preferences in your user account.

Time Position Orientation Groundspeed Altitude Reporting Facility
EDT Latitude Longitude Course Direction KTS MPH feet Rate Location/Type
10:27PM 35.1908 -80.9356 72° East 158 182 1,900  Level Atlanta Center
10:27PM 35.1719 -80.9314 170° South 158 182 2,900 1,860 Climbing Atlanta Center
10:28PM 35.1331 -80.8794 132° Southeast 255 293 4,800 1,800 Climbing Atlanta Center
10:29PM 35.1000 -80.6333 90° East  Level FlightAware Approximate
10:29PM 35.1686 -80.7994 61° Northeast 290 334 6,800  Level Atlanta Center
10:30PM 35.1927 -80.5716 29° Northeast  Level FlightAware Approximate
10:30PM 35.2017 -80.7142 65° Northeast 290 334 9,200  Level Atlanta Center
10:31PM 35.2840 -80.5067 30° Northeast  Level FlightAware Approximate
10:31PM 35.2389 -80.6236 63° Northeast 290 334 11,100  Level Atlanta Center
10:32PM 35.3449 -80.4230 72° East  Level FlightAware Approximate
10:32PM 35.2819 -80.5200 63° Northeast 318 366 12,600  Level Atlanta Center
10:33PM 35.3244 -80.4064 65° Northeast 352 405 15,000 2,280 Climbing Atlanta Center
10:35PM 35.4264 -80.1547 64° Northeast 375 432 19,900 1,920 Climbing Washington Center
10:36PM 35.4578 -80.0417 71° East 380 437 21,300 1,860 Climbing Washington Center
10:37PM 35.4992 -79.8808 72° East 391 450 23,700 2,100 Climbing Washington Center
10:38PM 35.5350 -79.7475 72° East 401 461 25,500 1,560 Climbing Washington Center
10:39PM 35.5689 -79.6114 73° East 407 468 26,900 720 Climbing Washington Center
10:40PM 35.6003 -79.4850 73° East 423 487 27,000  Climbing Washington Center
10:41PM 35.6486 -79.3444 67° East 411 473 27,000  Level Washington Center
10:42PM 35.7028 -79.2139 63° Northeast 411 473 27,000  Level Washington Center
10:43PM 35.7544 -79.0883 63° Northeast 411 473 27,000  Level Washington Center
10:44PM 35.8039 -78.9625 64° Northeast 417 480 27,000  Level Washington Center
10:45PM 35.8578 -78.8314 63° Northeast 417 480 27,000  Level Washington Center
10:46PM 35.9153 -78.7056 61° Northeast 417 480 27,000  Level Washington Center
10:47PM 35.9769 -78.5797 59° Northeast 417 480 27,000  Level Washington Center
10:48PM 36.0364 -78.4533 60° Northeast 417 480 27,000  Level Washington Center
10:49PM 36.0975 -78.3322 58° Northeast 417 480 27,000  Level Washington Center
10:50PM 36.1567 -78.2058 60° Northeast 417 480 27,000  Level Washington Center
10:51PM 36.2158 -78.0789 60° Northeast 417 480 27,000  Level Washington Center
10:52PM 36.2747 -77.9544 60° Northeast 412 474 27,000  Level Washington Center
10:53PM 36.3356 -77.8300 59° Northeast 412 474 27,000  Level Washington Center
10:54PM 36.3961 -77.7053 59° Northeast 412 474 27,000  Level Washington Center
10:55PM 36.4461 -77.5906 62° Northeast 412 474 27,000  Level Washington Center
10:56PM 36.5044 -77.4628 60° Northeast 412 474 27,000  Level Washington Center
10:57PM 36.5628 -77.3375 60° Northeast 417 480 27,000  Level Washington Center
10:58PM 36.6228 -77.2119 59° Northeast 417 480 27,000  Level Washington Center
10:59PM 36.6808 -77.0836 61° Northeast 417 480 27,000  Level Washington Center
11:00PM 36.7553 -76.9736 50° Northeast 412 474 27,000  Level Washington Center
11:01PM 36.8500 -76.8872 36° Northeast 405 466 27,000  Level Washington Center
11:02PM 36.9428 -76.8056 35° Northeast 405 466 27,000  Level Washington Center
11:03PM 37.0353 -76.7236 35° Northeast 405 466 27,000  Level Washington Center
11:04PM 37.1383 -76.6289 36° Northeast 410 472 27,000  Level Washington Center
11:05PM 37.2289 -76.5467 36° Northeast 410 472 27,000  Level Washington Center
11:06PM 37.3233 -76.4589 36° Northeast 410 472 27,000  Level Washington Center
11:07PM 37.4178 -76.3736 36° Northeast 410 472 27,000  Level Washington Center
11:08PM 37.5081 -76.2881 37° Northeast 410 472 27,000  Level Washington Center
11:09PM 37.6003 -76.2025 36° Northeast 410 472 27,000  Level Washington Center
11:10PM 37.6881 -76.1325 32° Northeast 405 466 27,000  Level Washington Center
11:11PM 37.7844 -76.0333 39° Northeast 405 466 27,000  Level Washington Center
11:12PM 37.8764 -75.9494 36° Northeast 411 473 27,000  Level Washington Center
11:13PM 37.9683 -75.8658 36° Northeast 411 473 27,000  Level Washington Center
11:14PM 38.0583 -75.7764 38° Northeast 411 473 27,000  Level Washington Center
11:15PM 38.1419 -75.7000 36° Northeast 411 473 27,000  Level Washington Center
11:16PM 38.2314 -75.6181 36° Northeast 406 467 27,000  Level Washington Center
11:17PM 38.3233 -75.5308 37° Northeast 401 461 27,000 -60 Level Washington Center
11:18PM 38.4233 -75.4778 23° Northeast 394 453 26,900  Descending Washington Center
11:19PM 38.5253 -75.4378 17° North 384 442 27,000  Climbing Washington Center
11:20PM 38.6253 -75.3978 17° North 379 436 27,000  Level Washington Center
11:21PM 38.7294 -75.3547 18° North 379 436 27,000  Level Washington Center
11:22PM 38.8275 -75.3144 18° North 379 436 27,000  Level Washington Center
11:23PM 38.9294 -75.2714 18° North 379 436 27,000  Level Washington Center
11:24PM 39.0272 -75.2283 19° North 374 430 27,000  Level Washington Center
11:25PM 39.1272 -75.1850 19° North 374 430 27,000 -60 Level Washington Center
11:26PM 39.2272 -75.1469 16° North 374 430 26,900  Descending Washington Center
11:27PM 39.3250 -75.0925 23° Northeast 380 437 27,000  Climbing Washington Center
11:28PM 39.4161 -75.0006 38° Northeast 391 450 27,000  Level Washington Center
11:29PM 39.5033 -74.9139 37° Northeast 391 450 27,000  Level Washington Center
11:30PM 39.5903 -74.8242 38° Northeast 396 456 27,000  Level Washington Center
11:32PM 39.7511 -74.6697 36° Northeast 429 494 27,000  Level New York Center
11:33PM 39.8417 -74.5775 38° Northeast 416 479 27,000  Level New York Center
11:34PM 39.9319 -74.4931 36° Northeast 405 466 27,000  Level New York Center
11:35PM 40.0203 -74.4031 38° Northeast 405 466 27,000 -60 Level New York Center
11:36PM 40.1231 -74.3783 10° North 376 433 26,900  Descending New York Center
11:37PM 40.2258 -74.3594 North 364 419 27,000  Climbing New York Center
11:38PM 40.3264 -74.3400 North 364 419 27,000  Level New York Center
11:39PM 40.4417 -74.3133 10° North 369 425 27,000  Level New York Center
11:40PM 40.5444 -74.2914 North 369 425 27,000  Level New York Center
11:42PM 40.7456 -74.2564 North 387 445 27,000 -360 Level Boston Center
11:43PM 40.8522 -74.2319 10° North 387 445 26,100 -540 Descending Boston Center
11:44PM 40.9547 -74.2072 10° North 382 440 26,000 -60 Descending Boston Center
11:45PM 41.0572 -74.1853 North 382 440 26,000  Level Boston Center
11:46PM 41.1597 -74.1633 North 374 430 26,000  Level Boston Center
11:47PM 41.2456 -74.1461 North 374 430 26,000  Level Boston Center
11:48PM 41.3667 -74.1161 11° North 368 423 26,000  Level Boston Center
11:49PM 41.4692 -74.0886 11° North 368 423 26,000 -1,260 Level Boston Center
11:50PM 41.5781 -74.0692 North 374 430 23,500 -2,400 Descending Boston Center
11:51PM 41.6783 -74.0467 10° North 374 430 21,300 -2,280 Descending Boston Center
11:52PM 41.7786 -74.0242 North 374 430 19,000 -2,400 Descending Boston Center
11:53PM 41.8331 -74.0144 North 365 420 17,700 -1,920 Descending Boston Center
11:53PM 41.8664 -74.0067 10° North 353 406 17,100 -2,100 Descending Boston Center
11:54PM 41.9272 -73.9917 10° North 353 406 15,600 -2,340 Descending Boston Center
11:54PM 41.9711 -73.9814 10° North 353 406 14,800 -1,800 Descending Boston Center
11:55PM 42.0211 -73.9714 North 341 392 13,800 -1,740 Descending Boston Center
11:55PM 42.0608 -73.9586 13° North 332 382 13,100 -1,500 Descending Boston Center
11:56PM 42.1111 -73.9514 North 320 368 12,300 -1,440 Descending Boston Center
11:56PM 42.1403 -73.9408 15° North 323 372 11,700 -1,500 Descending Boston Center
11:57PM 42.1928 -73.9253 12° North 298 343 10,800 -1,620 Descending Boston Center
11:57PM 42.2261 -73.9092 20° North 297 342 10,100 -1,440 Descending Boston Center
11:58PM 42.2744 -73.8964 11° North 283 326 9,400 -1,440 Descending Boston Center
11:59PM 42.3475 -73.8728 13° North 263 303 7,800 -1,380 Descending Boston Center
12:00AM 42.4147 -73.8489 15° North 243 280 6,600 -1,440 Descending Boston Center
12:01AM 42.4753 -73.8306 13° North 229 264 4,900 -1,440 Descending Boston Center
12:02AM 42.5339 -73.8067 17° North 222 255 3,700 -1,020 Descending Boston Center
12:03AM 42.5861 -73.7994 North 181 208 2,900 -840 Descending Boston Center